Time;durP1;ratioP1;P1;durP2;ratioP2;P2;SDS_P1;SDS_P2;PMS_P1;PMS_P2;Temp;Humidity;BMP_temperature;BMP_pressure;BME280_temperature;BME280_humidity;BME280_pressure;Samples;Min_cycle;Max_cycle;Signal;HPM_P1;HPM_P2
2021/11/14 00:00:33;;;;;;;3.42;2.88;;;;;;;;;;5039855;28;20029;-64
2021/11/14 00:02:59;;;;;;;7.28;4.80;;;;;;;;;;5036724;28;20466;-63
2021/11/14 00:05:25;;;;;;;6.32;4.07;;;;;;;;;;5038666;28;20025;-64
2021/11/14 00:07:50;;;;;;;6.68;3.50;;;;;;;;;;5039424;28;20024;-63
2021/11/14 00:10:16;;;;;;;5.45;3.75;;;;;;;;;;5038871;28;20147;-64
2021/11/14 00:12:41;;;;;;;2.72;1.98;;;;;;;;;;5040438;28;20033;-64
2021/11/14 00:15:08;;;;;;;5.93;2.45;;;;;;;;;;5041286;28;20018;-64
2021/11/14 00:17:33;;;;;;;3.83;2.00;;;;;;;;;;5037865;28;20039;-64
2021/11/14 00:20:00;;;;;;;5.57;2.42;;;;;;;;;;5039660;28;20047;-64
2021/11/14 00:22:25;;;;;;;6.10;2.58;;;;;;;;;;5044376;28;20021;-64
2021/11/14 00:24:50;;;;;;;2.92;2.05;;;;;;;;;;5043012;28;20036;-64
2021/11/14 00:27:16;;;;;;;5.10;3.03;;;;;;;;;;5036433;28;20025;-63
2021/11/14 00:29:41;;;;;;;4.18;3.10;;;;;;;;;;5038956;28;20033;-64
2021/11/14 00:32:07;;;;;;;7.78;3.72;;;;;;;;;;5039308;28;20399;-63
2021/11/14 00:34:34;;;;;;;8.25;2.83;;;;;;;;;;5036891;28;20473;-63
2021/11/14 00:37:00;;;;;;;3.80;2.85;;;;;;;;;;5038969;28;20041;-63
2021/11/14 00:39:25;;;;;;;4.25;2.53;;;;;;;;;;5038843;28;20069;-63
2021/11/14 00:41:51;;;;;;;5.68;2.95;;;;;;;;;;5035398;28;20026;-63
2021/11/14 00:44:16;;;;;;;5.25;2.67;;;;;;;;;;5038093;28;20028;-63
2021/11/14 00:46:41;;;;;;;4.72;2.88;;;;;;;;;;5040651;28;20109;-63
2021/11/14 00:49:07;;;;;;;3.85;1.60;;;;;;;;;;5038189;28;20057;-63
2021/11/14 00:51:32;;;;;;;3.42;1.90;;;;;;;;;;5038288;28;20092;-63
2021/11/14 00:54:00;;;;;;;7.70;3.17;;;;;;;;;;5037563;28;20112;-63
2021/11/14 00:56:26;;;;;;;6.63;2.78;;;;;;;;;;5041773;28;20021;-63
2021/11/14 00:58:51;;;;;;;3.10;2.80;;;;;;;;;;5033303;28;20183;-63
2021/11/14 01:01:17;;;;;;;3.92;1.80;;;;;;;;;;5036576;28;20677;-63
2021/11/14 01:03:42;;;;;;;3.03;1.60;;;;;;;;;;5038215;28;20021;-63
2021/11/14 01:06:08;;;;;;;5.25;3.53;;;;;;;;;;5037307;28;20040;-64
2021/11/14 01:08:33;;;;;;;8.30;4.57;;;;;;;;;;5035531;28;20465;-63
2021/11/14 01:11:02;;;;;;;9.32;4.90;;;;;;;;;;5037889;28;20037;-63
2021/11/14 01:13:27;;;;;;;5.95;4.93;;;;;;;;;;5037577;28;20028;-63
2021/11/14 01:15:53;;;;;;;6.95;6.25;;;;;;;;;;5034318;28;20538;-63
2021/11/14 01:18:19;;;;;;;9.57;4.63;;;;;;;;;;5040406;28;20448;-64
2021/11/14 01:20:46;;;;;;;5.50;3.25;;;;;;;;;;5035113;28;20029;-63
2021/11/14 01:23:12;;;;;;;6.43;4.15;;;;;;;;;;5038633;28;20021;-64
2021/11/14 01:25:38;;;;;;;10.38;4.82;;;;;;;;;;5035674;28;20025;-63
2021/11/14 01:28:03;;;;;;;9.82;5.97;;;;;;;;;;5037207;28;20025;-63
2021/11/14 01:30:30;;;;;;;6.57;4.88;;;;;;;;;;5033149;28;20559;-63
2021/11/14 01:32:56;;;;;;;6.43;3.63;;;;;;;;;;5036039;28;20016;-63
2021/11/14 01:35:22;;;;;;;6.32;3.90;;;;;;;;;;5034725;28;20147;-64
2021/11/14 01:37:48;;;;;;;6.30;4.47;;;;;;;;;;5036396;28;20018;-63
2021/11/14 01:40:21;;;;;;;4.15;2.78;;;;;;;;;;5036455;28;20020;-63
2021/11/14 01:42:46;;;;;;;5.57;3.88;;;;;;;;;;5038695;28;20022;-63
2021/11/14 01:45:12;;;;;;;4.65;3.55;;;;;;;;;;5037376;28;20576;-63
2021/11/14 01:47:37;;;;;;;10.30;4.07;;;;;;;;;;5037137;28;20032;-63
2021/11/14 01:50:04;;;;;;;5.18;4.32;;;;;;;;;;5033420;28;20056;-63
2021/11/14 01:52:30;;;;;;;3.85;3.03;;;;;;;;;;5036553;28;20025;-63
2021/11/14 01:54:55;;;;;;;4.75;3.65;;;;;;;;;;5036114;28;20025;-63
2021/11/14 01:57:21;;;;;;;4.15;3.35;;;;;;;;;;5036891;28;20038;-63
2021/11/14 01:59:47;;;;;;;3.38;2.90;;;;;;;;;;5036715;28;20029;-63
2021/11/14 02:02:13;;;;;;;7.20;2.70;;;;;;;;;;5036748;28;20060;-63
2021/11/14 02:04:39;;;;;;;4.85;3.38;;;;;;;;;;5039579;28;20037;-63
2021/11/14 02:07:04;;;;;;;6.38;3.35;;;;;;;;;;5035477;28;20897;-63
2021/11/14 02:09:31;;;;;;;4.63;2.47;;;;;;;;;;5035808;28;20029;-62
2021/11/14 02:11:57;;;;;;;4.85;2.78;;;;;;;;;;5036813;28;20057;-62
2021/11/14 02:14:23;;;;;;;15.18;3.22;;;;;;;;;;5034209;28;20053;-63
2021/11/14 02:16:48;;;;;;;9.73;4.03;;;;;;;;;;5034295;28;20018;-63
2021/11/14 02:19:14;;;;;;;6.75;4.78;;;;;;;;;;5033840;28;20131;-63
2021/11/14 02:21:39;;;;;;;6.57;3.47;;;;;;;;;;5039735;28;20049;-63
2021/11/14 02:24:04;;;;;;;6.30;2.92;;;;;;;;;;5031283;28;20037;-63
2021/11/14 02:26:30;;;;;;;7.85;3.92;;;;;;;;;;5035743;28;20017;-62
2021/11/14 02:28:56;;;;;;;8.25;3.75;;;;;;;;;;5032142;28;20017;-63
2021/11/14 02:31:22;;;;;;;5.13;3.63;;;;;;;;;;5037102;28;20040;-62
2021/11/14 02:33:48;;;;;;;5.57;3.38;;;;;;;;;;5036568;28;20027;-62
2021/11/14 02:36:13;;;;;;;7.05;3.35;;;;;;;;;;5035888;28;20013;-62
2021/11/14 02:38:39;;;;;;;3.28;2.40;;;;;;;;;;5038320;28;20032;-62
2021/11/14 02:41:05;;;;;;;5.95;4.28;;;;;;;;;;5035041;28;20025;-62
2021/11/14 02:43:30;;;;;;;2.63;2.33;;;;;;;;;;5036986;28;20485;-62
2021/11/14 02:45:56;;;;;;;5.43;3.65;;;;;;;;;;5034893;28;20029;-62
2021/11/14 02:48:22;;;;;;;6.07;3.28;;;;;;;;;;5035027;28;20384;-62
2021/11/14 02:50:49;;;;;;;7.18;3.45;;;;;;;;;;5034944;28;20570;-62
2021/11/14 02:53:15;;;;;;;6.72;3.58;;;;;;;;;;5036426;28;20036;-62
2021/11/14 02:55:43;;;;;;;6.00;3.97;;;;;;;;;;5026997;28;20132;-64
2021/11/14 02:58:08;;;;;;;4.50;3.60;;;;;;;;;;5037581;28;20025;-63
2021/11/14 03:00:40;;;;;;;5.72;4.03;;;;;;;;;;5037920;28;20081;-62
2021/11/14 03:03:06;;;;;;;13.20;2.85;;;;;;;;;;5034343;28;20029;-62
2021/11/14 03:05:31;;;;;;;7.28;2.63;;;;;;;;;;5036440;28;20017;-62
2021/11/14 03:07:56;;;;;;;4.63;3.58;;;;;;;;;;5035386;28;20447;-62
2021/11/14 03:10:25;;;;;;;9.38;2.90;;;;;;;;;;5035382;28;20507;-62
2021/11/14 03:13:01;;;;;;;6.78;2.97;;;;;;;;;;5032808;28;20025;-63
2021/11/14 03:15:27;;;;;;;2.83;2.40;;;;;;;;;;5035379;28;20562;-62
2021/11/14 03:17:52;;;;;;;4.47;3.05;;;;;;;;;;5036694;28;20028;-62
2021/11/14 03:20:18;;;;;;;3.97;2.35;;;;;;;;;;5036162;28;20029;-62
2021/11/14 03:22:43;;;;;;;3.42;2.72;;;;;;;;;;5037210;28;20074;-63
2021/11/14 03:25:08;;;;;;;4.50;2.72;;;;;;;;;;5039396;28;20075;-62
2021/11/14 03:27:34;;;;;;;5.00;2.67;;;;;;;;;;5040501;28;20021;-62
2021/11/14 03:29:59;;;;;;;3.63;2.63;;;;;;;;;;5039622;28;20013;-62
2021/11/14 03:32:25;;;;;;;6.10;2.15;;;;;;;;;;5039956;28;20013;-61
2021/11/14 03:34:50;;;;;;;4.90;2.85;;;;;;;;;;5042391;28;20117;-62
2021/11/14 03:37:20;;;;;;;3.55;2.88;;;;;;;;;;5040851;28;20021;-62
2021/11/14 03:39:46;;;;;;;2.97;2.03;;;;;;;;;;5039475;28;20033;-62
2021/11/14 03:42:11;;;;;;;13.77;2.97;;;;;;;;;;5035414;28;20021;-62
2021/11/14 03:44:37;;;;;;;5.10;2.28;;;;;;;;;;5040617;28;20027;-62
2021/11/14 03:47:03;;;;;;;5.97;2.08;;;;;;;;;;5040920;28;20020;-63
2021/11/14 03:49:28;;;;;;;3.35;2.33;;;;;;;;;;5039724;28;20088;-62
2021/11/14 03:51:55;;;;;;;5.82;2.08;;;;;;;;;;5039832;28;20118;-61
2021/11/14 03:54:20;;;;;;;12.40;2.60;;;;;;;;;;5039691;28;20568;-61
2021/11/14 03:56:46;;;;;;;9.07;2.53;;;;;;;;;;5037219;28;20108;-61
2021/11/14 03:59:11;;;;;;;3.40;2.05;;;;;;;;;;5038913;28;20130;-62
2021/11/14 04:01:36;;;;;;;2.83;1.92;;;;;;;;;;5040978;28;20028;-62
2021/11/14 04:04:02;;;;;;;5.05;2.08;;;;;;;;;;5038693;28;20393;-62
2021/11/14 04:06:27;;;;;;;4.88;2.40;;;;;;;;;;5039460;28;20021;-62
2021/11/14 04:08:53;;;;;;;1.98;1.38;;;;;;;;;;5037972;28;20030;-62
2021/11/14 04:11:19;;;;;;;3.75;2.13;;;;;;;;;;5036751;28;20236;-62
2021/11/14 04:13:44;;;;;;;2.72;2.00;;;;;;;;;;5035033;28;20567;-62
2021/11/14 04:16:10;;;;;;;5.45;3.17;;;;;;;;;;5034957;28;20025;-61
2021/11/14 04:18:36;;;;;;;5.03;2.88;;;;;;;;;;5038587;28;20021;-63
2021/11/14 04:21:02;;;;;;;4.88;3.13;;;;;;;;;;5036728;28;20717;-63
2021/11/14 04:23:27;;;;;;;4.63;3.10;;;;;;;;;;5043327;28;20787;-63
2021/11/14 04:25:52;;;;;;;4.00;2.35;;;;;;;;;;5039012;28;20187;-63
2021/11/14 04:28:18;;;;;;;8.07;3.13;;;;;;;;;;5039752;28;20022;-63
2021/11/14 04:30:44;;;;;;;19.08;3.05;;;;;;;;;;5043398;28;20067;-63
2021/11/14 04:33:10;;;;;;;7.40;3.65;;;;;;;;;;5038245;28;20484;-61
2021/11/14 04:35:35;;;;;;;5.20;4.70;;;;;;;;;;5040158;28;20013;-62
2021/11/14 04:38:01;;;;;;;6.45;4.30;;;;;;;;;;5038413;28;20027;-62
2021/11/14 04:40:28;;;;;;;9.65;5.35;;;;;;;;;;5039026;28;20020;-62
2021/11/14 04:42:53;;;;;;;7.68;4.07;;;;;;;;;;5040922;28;20084;-62
2021/11/14 04:45:19;;;;;;;5.10;3.88;;;;;;;;;;5036766;28;20029;-62
2021/11/14 04:47:45;;;;;;;6.35;3.40;;;;;;;;;;5039369;28;20028;-62
2021/11/14 04:50:11;;;;;;;4.72;3.95;;;;;;;;;;5037976;28;20557;-63
2021/11/14 04:52:37;;;;;;;9.95;4.82;;;;;;;;;;5039025;28;20021;-63
2021/11/14 04:55:03;;;;;;;9.30;4.88;;;;;;;;;;5040715;28;20037;-62
2021/11/14 04:57:29;;;;;;;7.57;3.30;;;;;;;;;;5038496;28;20511;-63
2021/11/14 04:59:54;;;;;;;5.68;3.83;;;;;;;;;;5040123;28;20064;-62
2021/11/14 05:02:20;;;;;;;5.38;3.25;;;;;;;;;;5038726;28;20538;-63
2021/11/14 05:04:45;;;;;;;4.78;3.00;;;;;;;;;;5035338;28;20066;-62
2021/11/14 05:07:10;;;;;;;7.53;3.92;;;;;;;;;;5036708;28;20020;-63
2021/11/14 05:09:36;;;;;;;8.15;3.42;;;;;;;;;;5038166;28;20073;-63
2021/11/14 05:12:01;;;;;;;4.63;3.40;;;;;;;;;;5039380;28;20049;-63
2021/11/14 05:14:26;;;;;;;4.78;2.28;;;;;;;;;;5032255;28;20025;-63
2021/11/14 05:16:52;;;;;;;5.63;3.88;;;;;;;;;;5037353;28;20074;-62
2021/11/14 05:19:17;;;;;;;4.68;3.03;;;;;;;;;;5039105;28;20025;-62
2021/11/14 05:21:43;;;;;;;6.45;3.70;;;;;;;;;;5038895;28;20028;-62
2021/11/14 05:24:08;;;;;;;12.20;3.30;;;;;;;;;;5038799;28;20124;-62
2021/11/14 05:26:34;;;;;;;6.18;3.47;;;;;;;;;;5037973;28;20017;-62
2021/11/14 05:28:59;;;;;;;5.05;3.25;;;;;;;;;;5034629;28;20036;-62
2021/11/14 05:31:25;;;;;;;4.00;2.53;;;;;;;;;;5036281;28;20017;-62
2021/11/14 05:33:50;;;;;;;7.30;4.70;;;;;;;;;;5035839;28;20017;-62
2021/11/14 05:36:15;;;;;;;6.25;4.05;;;;;;;;;;5040534;28;20019;-62
2021/11/14 05:38:41;;;;;;;6.95;4.63;;;;;;;;;;5038842;28;20077;-63
2021/11/14 05:41:06;;;;;;;7.03;3.97;;;;;;;;;;5037369;28;20116;-62
2021/11/14 05:43:31;;;;;;;3.97;3.40;;;;;;;;;;5037214;28;20029;-62
2021/11/14 05:45:56;;;;;;;4.97;2.85;;;;;;;;;;5037419;28;20142;-62
2021/11/14 05:48:22;;;;;;;6.60;2.75;;;;;;;;;;5034912;28;20037;-63
2021/11/14 05:50:47;;;;;;;5.05;2.95;;;;;;;;;;5035764;28;20045;-62
2021/11/14 05:53:13;;;;;;;5.40;3.65;;;;;;;;;;5037461;28;20129;-63
2021/11/14 05:55:39;;;;;;;10.30;4.30;;;;;;;;;;5033889;28;20052;-62
2021/11/14 05:58:08;;;;;;;5.93;4.72;;;;;;;;;;5035001;28;20049;-62
2021/11/14 06:03:18;;;;;;;9.30;5.32;;;;;;;;;;5035045;28;20032;-62
2021/11/14 06:05:45;;;;;;;3.60;3.03;;;;;;;;;;5036947;28;20049;-62
2021/11/14 06:08:10;;;;;;;8.90;3.53;;;;;;;;;;5037252;28;20055;-62
2021/11/14 06:10:36;;;;;;;4.18;3.38;;;;;;;;;;5037288;28;20049;-62
2021/11/14 06:13:01;;;;;;;4.80;2.92;;;;;;;;;;5036567;28;20083;-62
2021/11/14 06:15:26;;;;;;;10.32;3.88;;;;;;;;;;5037888;28;20024;-62
2021/11/14 06:17:52;;;;;;;6.90;4.55;;;;;;;;;;5038486;28;20037;-62
2021/11/14 06:20:18;;;;;;;6.75;4.70;;;;;;;;;;5035409;28;20385;-67
2021/11/14 06:22:44;;;;;;;13.85;5.80;;;;;;;;;;5036399;28;20103;-67
2021/11/14 06:25:09;;;;;;;16.45;6.25;;;;;;;;;;5033382;28;20116;-67
2021/11/14 06:27:36;;;;;;;10.10;5.95;;;;;;;;;;5037419;28;20028;-66
2021/11/14 06:30:03;;;;;;;5.82;4.57;;;;;;;;;;5038830;28;20070;-66
2021/11/14 06:32:28;;;;;;;7.72;4.82;;;;;;;;;;5036113;28;20017;-66
2021/11/14 06:34:53;;;;;;;8.90;4.05;;;;;;;;;;5035420;28;20384;-66
2021/11/14 06:37:19;;;;;;;7.80;3.65;;;;;;;;;;5038745;28;20530;-66
2021/11/14 06:39:44;;;;;;;4.82;3.70;;;;;;;;;;5036763;28;20026;-68
2021/11/14 06:42:09;;;;;;;5.55;3.33;;;;;;;;;;5034998;28;20635;-66
2021/11/14 06:44:35;;;;;;;4.70;3.55;;;;;;;;;;5036708;28;20033;-65
2021/11/14 06:47:00;;;;;;;7.72;3.20;;;;;;;;;;5036677;28;20022;-66
2021/11/14 06:49:25;;;;;;;4.47;3.63;;;;;;;;;;5036229;28;20055;-66
2021/11/14 06:51:51;;;;;;;10.55;3.65;;;;;;;;;;5035838;28;20021;-65
2021/11/14 06:54:16;;;;;;;3.67;3.00;;;;;;;;;;5033827;28;20018;-65
2021/11/14 06:56:42;;;;;;;4.95;3.13;;;;;;;;;;5034447;28;20067;-66
2021/11/14 06:59:07;;;;;;;5.85;3.83;;;;;;;;;;5035589;28;20084;-65
2021/11/14 07:01:32;;;;;;;5.40;4.53;;;;;;;;;;5034313;28;20040;-66
2021/11/14 07:03:58;;;;;;;4.75;3.15;;;;;;;;;;5036328;28;20025;-66
2021/11/14 07:06:23;;;;;;;7.13;4.50;;;;;;;;;;5035536;28;20084;-66
2021/11/14 07:08:48;;;;;;;9.13;4.10;;;;;;;;;;5035564;28;20051;-66
2021/11/14 07:11:16;;;;;;;10.05;6.55;;;;;;;;;;5036632;28;20030;-66
2021/11/14 07:13:41;;;;;;;4.82;3.30;;;;;;;;;;5035499;28;20028;-65
2021/11/14 07:16:06;;;;;;;7.75;6.93;;;;;;;;;;5039178;28;20028;-66
2021/11/14 07:18:32;;;;;;;7.90;7.10;;;;;;;;;;5035341;28;20017;-66
2021/11/14 07:20:57;;;;;;;5.25;4.75;;;;;;;;;;5034932;28;20018;-66
2021/11/14 07:23:22;;;;;;;6.97;6.30;;;;;;;;;;5034426;28;20588;-66
2021/11/14 07:25:48;;;;;;;7.00;6.32;;;;;;;;;;5036622;28;20036;-66
2021/11/14 07:28:13;;;;;;;7.50;6.68;;;;;;;;;;5035750;28;20025;-66
2021/11/14 07:30:38;;;;;;;8.02;6.10;;;;;;;;;;5035447;28;20548;-65
2021/11/14 07:33:04;;;;;;;14.63;12.10;;;;;;;;;;5035296;28;20137;-66
2021/11/14 07:35:30;;;;;;;12.77;7.40;;;;;;;;;;5031848;28;20017;-65
2021/11/14 07:37:55;;;;;;;8.20;5.47;;;;;;;;;;5036489;28;20104;-66
2021/11/14 07:40:22;;;;;;;8.25;6.00;;;;;;;;;;5032481;28;20469;-66
2021/11/14 07:42:48;;;;;;;8.27;6.00;;;;;;;;;;5034946;28;20036;-65
2021/11/14 07:45:14;;;;;;;7.80;5.25;;;;;;;;;;5033029;28;20104;-65
2021/11/14 07:47:39;;;;;;;11.90;7.43;;;;;;;;;;5035712;28;20020;-65
2021/11/14 07:50:05;;;;;;;8.63;7.68;;;;;;;;;;5032507;28;20042;-65
2021/11/14 07:52:31;;;;;;;10.80;6.57;;;;;;;;;;5036036;28;20120;-65
2021/11/14 07:54:57;;;;;;;7.35;6.57;;;;;;;;;;5039500;28;20021;-65
2021/11/14 07:57:23;;;;;;;9.73;8.55;;;;;;;;;;5030797;28;20022;-65
2021/11/14 07:59:48;;;;;;;7.90;7.13;;;;;;;;;;5035005;28;20099;-66
2021/11/14 08:02:13;;;;;;;10.50;9.25;;;;;;;;;;5037155;28;20070;-66
2021/11/14 08:04:38;;;;;;;9.80;8.35;;;;;;;;;;5029282;28;20025;-65
2021/11/14 08:07:04;;;;;;;8.68;7.72;;;;;;;;;;5035894;28;20032;-65
2021/11/14 08:09:29;;;;;;;11.43;8.43;;;;;;;;;;5038038;28;20497;-65
2021/11/14 08:11:55;;;;;;;11.20;9.45;;;;;;;;;;5038737;28;20040;-65
2021/11/14 08:14:20;;;;;;;14.80;13.13;;;;;;;;;;5039592;28;20036;-66
2021/11/14 08:16:45;;;;;;;10.90;9.68;;;;;;;;;;5038854;28;20059;-66
2021/11/14 08:19:10;;;;;;;11.35;10.30;;;;;;;;;;5038016;28;20021;-65
2021/11/14 08:21:36;;;;;;;14.50;10.98;;;;;;;;;;5040342;28;20040;-66
2021/11/14 08:24:01;;;;;;;13.00;11.68;;;;;;;;;;5036852;28;20021;-66
2021/11/14 08:26:26;;;;;;;10.43;9.48;;;;;;;;;;5037260;28;20059;-66
2021/11/14 08:28:52;;;;;;;11.43;9.15;;;;;;;;;;5037206;28;20122;-66
2021/11/14 08:31:20;;;;;;;12.43;10.32;;;;;;;;;;5040560;28;20497;-66
2021/11/14 08:33:47;;;;;;;11.25;10.20;;;;;;;;;;5033412;28;20630;-66
2021/11/14 08:36:12;;;;;;;24.70;14.52;;;;;;;;;;5036042;28;20068;-66
2021/11/14 08:38:38;;;;;;;20.40;15.45;;;;;;;;;;5036866;28;20511;-66
2021/11/14 08:41:04;;;;;;;22.38;15.98;;;;;;;;;;5036430;28;20080;-66
2021/11/14 08:43:29;;;;;;;16.80;15.02;;;;;;;;;;5037397;28;20502;-66
2021/11/14 08:45:54;;;;;;;15.02;13.15;;;;;;;;;;5038375;28;20018;-67
2021/11/14 08:48:20;;;;;;;16.67;13.75;;;;;;;;;;5038359;28;20026;-67
2021/11/14 08:50:46;;;;;;;16.27;10.43;;;;;;;;;;5037666;28;20041;-67
2021/11/14 08:53:12;;;;;;;12.20;10.10;;;;;;;;;;5040877;28;20056;-62
2021/11/14 08:55:37;;;;;;;22.80;10.95;;;;;;;;;;5037837;28;20047;-61
2021/11/14 08:58:02;;;;;;;11.77;7.43;;;;;;;;;;5038429;28;20017;-61
2021/11/14 09:00:30;;;;;;;11.75;6.15;;;;;;;;;;5038760;28;20029;-61
2021/11/14 09:02:56;;;;;;;10.27;5.88;;;;;;;;;;5038304;28;20092;-61
2021/11/14 09:05:22;;;;;;;11.93;7.72;;;;;;;;;;5035374;28;20123;-61
2021/11/14 09:07:48;;;;;;;8.43;6.60;;;;;;;;;;5039127;28;20028;-46
2021/11/14 09:10:14;;;;;;;8.20;4.50;;;;;;;;;;5036410;28;20021;-46
2021/11/14 09:12:40;;;;;;;4.97;3.72;;;;;;;;;;5035774;28;20013;-44
2021/11/14 09:15:05;;;;;;;9.63;5.28;;;;;;;;;;5040138;28;20028;-48
2021/11/14 09:17:31;;;;;;;6.53;3.90;;;;;;;;;;5035366;28;20031;-45
2021/11/14 09:19:56;;;;;;;6.25;5.13;;;;;;;;;;5030479;28;20473;-48
2021/11/14 09:22:23;;;;;;;6.35;4.70;;;;;;;;;;5040364;28;20495;-56
2021/11/14 09:24:48;;;;;;;5.07;4.07;;;;;;;;;;5034142;28;20032;-53
2021/11/14 09:27:13;;;;;;;6.63;3.80;;;;;;;;;;5037195;28;20029;-52
2021/11/14 09:29:39;;;;;;;7.57;4.65;;;;;;;;;;5037194;28;20112;-55
2021/11/14 09:32:05;;;;;;;7.25;3.67;;;;;;;;;;5036087;28;20104;-51
2021/11/14 09:34:30;;;;;;;5.20;3.70;;;;;;;;;;5038267;28;20063;-54
2021/11/14 09:36:56;;;;;;;3.92;3.38;;;;;;;;;;5034997;28;20357;-51
2021/11/14 09:39:21;;;;;;;6.85;4.55;;;;;;;;;;5037036;28;20029;-49
2021/11/14 09:41:47;;;;;;;6.93;4.85;;;;;;;;;;5037041;28;20064;-52
2021/11/14 09:44:15;;;;;;;4.93;3.75;;;;;;;;;;5036214;28;20033;-55
2021/11/14 09:46:47;;;;;;;4.95;3.78;;;;;;;;;;5034402;28;20108;-54
2021/11/14 09:49:12;;;;;;;;;;;;;;;;;;5038693;28;20549;-53
2021/11/14 09:51:37;;;;;;;4.13;3.17;;;;;;;;;;5032889;28;19920;-55
2021/11/14 09:54:03;;;;;;;6.38;4.85;;;;;;;;;;5038825;28;20029;-51
2021/11/14 09:56:28;;;;;;;11.02;7.18;;;;;;;;;;5040962;28;20108;-55
2021/11/14 09:58:53;;;;;;;5.05;4.10;;;;;;;;;;5036651;28;20040;-53
2021/11/14 10:01:19;;;;;;;9.68;5.00;;;;;;;;;;5036988;28;20028;-55
2021/11/14 10:03:45;;;;;;;5.35;2.78;;;;;;;;;;5041600;28;20034;-51
2021/11/14 10:06:10;;;;;;;10.63;4.93;;;;;;;;;;5038591;28;20471;-53
2021/11/14 10:08:42;;;;;;;6.75;4.55;;;;;;;;;;5038261;28;20021;-51
2021/11/14 10:11:08;;;;;;;6.45;4.22;;;;;;;;;;5037044;28;20013;-49
2021/11/14 10:13:35;;;;;;;8.43;5.05;;;;;;;;;;5038772;28;20443;-52
2021/11/14 10:16:05;;;;;;;6.18;3.80;;;;;;;;;;5037150;28;20059;-50
2021/11/14 10:18:31;;;;;;;4.55;3.47;;;;;;;;;;5038732;28;20174;-55
2021/11/14 10:20:59;;;;;;;6.68;4.68;;;;;;;;;;5039167;28;20388;-52
2021/11/14 10:23:25;;;;;;;7.15;4.95;;;;;;;;;;5038553;28;20021;-55
2021/11/14 10:25:51;;;;;;;12.10;8.40;;;;;;;;;;5037729;28;20025;-52
2021/11/14 10:28:16;;;;;;;12.60;7.93;;;;;;;;;;5040084;28;20021;-54
2021/11/14 10:30:44;;;;;;;11.05;6.57;;;;;;;;;;5037854;28;20029;-53
2021/11/14 10:33:12;;;;;;;7.97;6.72;;;;;;;;;;5038558;28;20028;-52
2021/11/14 10:35:39;;;;;;;6.43;5.00;;;;;;;;;;5039408;28;20278;-53
2021/11/14 10:38:07;;;;;;;6.07;4.75;;;;;;;;;;5037503;28;20022;-52
2021/11/14 10:40:36;;;;;;;7.82;5.40;;;;;;;;;;5037344;28;20031;-55
2021/11/14 10:43:02;;;;;;;24.80;15.85;;;;;;;;;;5037188;28;20478;-54
2021/11/14 10:45:28;;;;;;;22.73;14.27;;;;;;;;;;5037282;28;20025;-54
2021/11/14 10:48:03;;;;;;;20.60;12.55;;;;;;;;;;5040219;28;20546;-55
2021/11/14 10:50:31;;;;;;;20.08;11.77;;;;;;;;;;5034370;28;20048;-55
2021/11/14 10:53:01;;;;;;;18.48;14.18;;;;;;;;;;5025899;28;20541;-54
2021/11/14 10:55:30;;;;;;;17.38;11.52;;;;;;;;;;5032220;28;20057;-53
2021/11/14 10:57:55;;;;;;;16.52;13.55;;;;;;;;;;5030999;28;20025;-52
2021/11/14 11:00:22;;;;;;;19.52;14.93;;;;;;;;;;5030568;28;20063;-50
2021/11/14 11:02:48;;;;;;;14.98;11.98;;;;;;;;;;5032168;28;20075;-52
2021/11/14 11:05:24;;;;;;;15.80;13.07;;;;;;;;;;5036569;28;20033;-54
2021/11/14 11:08:01;;;;;;;9.15;8.00;;;;;;;;;;5031763;28;20030;-53
2021/11/14 11:10:33;;;;;;;20.67;11.93;;;;;;;;;;5033367;28;20025;-51
2021/11/14 11:13:02;;;;;;;16.95;15.15;;;;;;;;;;5035437;28;20018;-47
2021/11/14 11:15:29;;;;;;;14.88;10.98;;;;;;;;;;5031450;28;20032;-53
2021/11/14 11:17:55;;;;;;;14.52;13.10;;;;;;;;;;5031664;28;20026;-55
2021/11/14 11:20:29;;;;;;;19.67;10.90;;;;;;;;;;5029054;28;20020;-51
2021/11/14 11:23:02;;;;;;;17.67;13.80;;;;;;;;;;5029118;28;20036;-53
2021/11/14 11:25:28;;;;;;;16.48;10.68;;;;;;;;;;5030576;28;20033;-52
2021/11/14 11:27:53;;;;;;;19.02;13.82;;;;;;;;;;5033605;28;20551;-54
2021/11/14 11:30:31;;;;;;;24.88;19.05;;;;;;;;;;5032445;28;20025;-52
2021/11/14 11:32:56;;;;;;;21.27;16.50;;;;;;;;;;5034293;28;20650;-53
2021/11/14 11:35:25;;;;;;;30.40;21.30;;;;;;;;;;5030862;28;20045;-52
2021/11/14 11:37:50;;;;;;;24.25;20.10;;;;;;;;;;5029766;28;20377;-54
2021/11/14 11:40:15;;;;;;;24.55;18.17;;;;;;;;;;5033237;28;20052;-51
2021/11/14 11:42:42;;;;;;;18.35;14.25;;;;;;;;;;5033099;28;20393;-53
2021/11/14 11:45:08;;;;;;;15.93;13.10;;;;;;;;;;5032812;28;20026;-53
2021/11/14 11:47:35;;;;;;;15.40;12.45;;;;;;;;;;5036690;28;20036;-53
2021/11/14 11:50:01;;;;;;;16.02;10.07;;;;;;;;;;5037656;28;20045;-52
2021/11/14 11:52:37;;;;;;;15.70;9.60;;;;;;;;;;5035959;28;20029;-53
2021/11/14 11:55:15;;;;;;;11.70;10.60;;;;;;;;;;5035645;28;20648;-53
2021/11/14 11:57:40;;;;;;;10.48;7.90;;;;;;;;;;5033548;28;20029;-54
2021/11/14 12:00:06;;;;;;;12.50;11.30;;;;;;;;;;5033872;28;20028;-54
2021/11/14 12:02:33;;;;;;;17.25;8.40;;;;;;;;;;5036456;28;20025;-54
2021/11/14 12:05:04;;;;;;;8.27;7.47;;;;;;;;;;5031072;28;20428;-54
2021/11/14 12:07:32;;;;;;;11.43;7.57;;;;;;;;;;5036091;28;20028;-55
2021/11/14 12:10:00;;;;;;;11.93;8.02;;;;;;;;;;5033145;28;20513;-55
2021/11/14 12:12:28;;;;;;;10.88;8.93;;;;;;;;;;5034610;28;20028;-56
2021/11/14 12:15:10;;;;;;;9.15;5.35;;;;;;;;;;5037894;28;20355;-55
2021/11/14 12:17:36;;;;;;;8.52;7.45;;;;;;;;;;5038116;28;20053;-55
2021/11/14 12:20:07;;;;;;;12.07;8.43;;;;;;;;;;5033176;28;20103;-55
2021/11/14 12:22:44;;;;;;;11.27;7.65;;;;;;;;;;5032890;28;20029;-51
2021/11/14 12:25:19;;;;;;;9.60;8.10;;;;;;;;;;5035931;28;20040;-55
2021/11/14 12:27:55;;;;;;;7.65;6.93;;;;;;;;;;5037631;28;20025;-54
2021/11/14 12:30:20;;;;;;;10.98;8.60;;;;;;;;;;5033830;28;20582;-54
2021/11/14 12:32:48;;;;;;;15.20;10.50;;;;;;;;;;5036232;28;20025;-53
2021/11/14 12:35:44;;;;;;;17.88;12.38;;;;;;;;;;5035170;28;20517;-56
2021/11/14 12:38:12;;;;;;;15.73;12.38;;;;;;;;;;5030953;28;20021;-53
2021/11/14 12:40:42;;;;;;;14.00;11.35;;;;;;;;;;5035041;28;20077;-55
2021/11/14 12:43:08;;;;;;;13.48;12.07;;;;;;;;;;5035807;28;20496;-54
2021/11/14 12:45:44;;;;;;;11.35;10.18;;;;;;;;;;5038273;28;20037;-54
2021/11/14 12:48:11;;;;;;;12.23;8.35;;;;;;;;;;5033872;28;20484;-51
2021/11/14 12:50:37;;;;;;;17.70;7.63;;;;;;;;;;5032269;28;20045;-51
2021/11/14 12:53:11;;;;;;;12.15;10.65;;;;;;;;;;5031449;28;20672;-51
2021/11/14 12:55:38;;;;;;;15.18;12.15;;;;;;;;;;5036004;28;20049;-54
2021/11/14 12:58:05;;;;;;;18.17;13.13;;;;;;;;;;5034930;28;20022;-54
2021/11/14 13:00:32;;;;;;;17.85;15.60;;;;;;;;;;5032410;28;20041;-50
2021/11/14 13:02:58;;;;;;;16.35;11.82;;;;;;;;;;5033119;28;20026;-52
2021/11/14 13:05:23;;;;;;;14.52;11.98;;;;;;;;;;5035357;28;20414;-53
2021/11/14 13:07:50;;;;;;;16.77;9.65;;;;;;;;;;5034172;28;20138;-54
2021/11/14 13:10:16;;;;;;;9.60;6.93;;;;;;;;;;5033424;28;20069;-53
2021/11/14 13:12:46;;;;;;;13.32;10.40;;;;;;;;;;5031409;28;20037;-55
2021/11/14 13:15:12;;;;;;;10.95;9.85;;;;;;;;;;5031988;28;20075;-50
2021/11/14 13:17:42;;;;;;;14.20;12.73;;;;;;;;;;5033532;28;20017;-55
2021/11/14 13:20:12;;;;;;;17.77;12.57;;;;;;;;;;5039497;28;20086;-53
2021/11/14 13:22:37;;;;;;;12.63;11.23;;;;;;;;;;5035092;28;20168;-51
2021/11/14 13:25:04;;;;;;;9.55;7.63;;;;;;;;;;5036756;28;20440;-55
2021/11/14 13:27:30;;;;;;;10.63;6.85;;;;;;;;;;5033351;28;20021;-51
2021/11/14 13:29:55;;;;;;;13.38;6.20;;;;;;;;;;5033838;28;20032;-50
2021/11/14 13:32:22;;;;;;;8.32;5.63;;;;;;;;;;5033283;28;20481;-54
2021/11/14 13:34:49;;;;;;;9.63;8.50;;;;;;;;;;5033474;28;20033;-53
2021/11/14 13:37:16;;;;;;;16.98;12.32;;;;;;;;;;5033279;28;20030;-52
2021/11/14 13:39:52;;;;;;;14.27;13.07;;;;;;;;;;5033104;28;20498;-54
2021/11/14 13:42:22;;;;;;;17.20;9.65;;;;;;;;;;5036823;28;20033;-53
2021/11/14 13:44:55;;;;;;;14.80;10.00;;;;;;;;;;5031737;28;20409;-52
2021/11/14 13:47:28;;;;;;;12.23;7.63;;;;;;;;;;5033884;28;20060;-53
2021/11/14 13:49:53;;;;;;;20.60;10.43;;;;;;;;;;5034081;28;20061;-52
2021/11/14 13:52:19;;;;;;;11.10;9.98;;;;;;;;;;5030463;28;20128;-50
2021/11/14 13:54:47;;;;;;;12.23;9.20;;;;;;;;;;5032659;28;20492;-49
2021/11/14 13:57:12;;;;;;;14.93;6.50;;;;;;;;;;5033227;28;20028;-53
2021/11/14 13:59:38;;;;;;;5.75;2.53;;;;;;;;;;5034137;28;20623;-54
2021/11/14 14:02:03;;;;;;;4.85;3.88;;;;;;;;;;5033614;28;20461;-53
2021/11/14 14:04:29;;;;;;;8.50;5.53;;;;;;;;;;5031600;28;20734;-55
2021/11/14 14:06:58;;;;;;;12.25;4.75;;;;;;;;;;5032291;28;20029;-55
2021/11/14 14:09:23;;;;;;;7.88;4.05;;;;;;;;;;5035473;28;20029;-55
2021/11/14 14:11:49;;;;;;;6.07;4.93;;;;;;;;;;5030781;28;20027;-54
2021/11/14 14:14:16;;;;;;;14.18;7.43;;;;;;;;;;5031680;28;20029;-52
2021/11/14 14:16:41;;;;;;;13.18;7.30;;;;;;;;;;5032418;28;20124;-53
2021/11/14 14:19:07;;;;;;;9.98;8.93;;;;;;;;;;5029198;28;20053;-47
2021/11/14 14:21:32;;;;;;;12.80;8.48;;;;;;;;;;5032191;28;20122;-51
2021/11/14 14:24:02;;;;;;;8.43;7.63;;;;;;;;;;5036176;28;20112;-54
2021/11/14 14:26:28;;;;;;;11.82;10.45;;;;;;;;;;5038224;28;20459;-52
2021/11/14 14:28:54;;;;;;;16.85;12.23;;;;;;;;;;5036276;28;20036;-50
2021/11/14 14:31:21;;;;;;;20.38;15.98;;;;;;;;;;5033342;28;20025;-49
2021/11/14 14:33:53;;;;;;;17.27;15.57;;;;;;;;;;5035298;28;20022;-51